sensor_id;sensor_type;location;lat;lon;timestamp;P1;durP1;ratioP1;P2;durP2;ratioP2
249;SDS011;109;19.806;-70.704;2023-07-31T00:00:21;40.30;;;9.00;;
249;SDS011;109;19.806;-70.704;2023-07-31T00:02:47;45.07;;;8.33;;
249;SDS011;109;19.806;-70.704;2023-07-31T00:05:15;36.67;;;8.07;;
249;SDS011;109;19.806;-70.704;2023-07-31T00:07:41;35.87;;;7.37;;
249;SDS011;109;19.806;-70.704;2023-07-31T00:10:08;48.70;;;9.30;;
249;SDS011;109;19.806;-70.704;2023-07-31T00:12:37;42.97;;;9.03;;
249;SDS011;109;19.806;-70.704;2023-07-31T00:15:06;46.90;;;8.87;;
249;SDS011;109;19.806;-70.704;2023-07-31T00:17:33;48.73;;;9.53;;
249;SDS011;109;19.806;-70.704;2023-07-31T00:20:00;46.93;;;9.70;;
249;SDS011;109;19.806;-70.704;2023-07-31T00:22:26;39.07;;;8.50;;
249;SDS011;109;19.806;-70.704;2023-07-31T00:24:53;53.50;;;9.10;;
249;SDS011;109;19.806;-70.704;2023-07-31T00:27:19;30.40;;;9.10;;
249;SDS011;109;19.806;-70.704;2023-07-31T00:29:45;45.77;;;8.50;;
249;SDS011;109;19.806;-70.704;2023-07-31T00:32:12;41.30;;;7.97;;
249;SDS011;109;19.806;-70.704;2023-07-31T00:34:38;44.77;;;9.27;;
249;SDS011;109;19.806;-70.704;2023-07-31T00:37:05;42.13;;;8.07;;
249;SDS011;109;19.806;-70.704;2023-07-31T00:39:33;58.63;;;11.90;;
249;SDS011;109;19.806;-70.704;2023-07-31T00:42:01;49.40;;;8.97;;
249;SDS011;109;19.806;-70.704;2023-07-31T00:44:34;46.50;;;8.70;;
249;SDS011;109;19.806;-70.704;2023-07-31T00:47:00;37.83;;;8.70;;
249;SDS011;109;19.806;-70.704;2023-07-31T00:49:34;37.67;;;9.60;;
249;SDS011;109;19.806;-70.704;2023-07-31T00:52:00;34.90;;;9.17;;
249;SDS011;109;19.806;-70.704;2023-07-31T00:54:34;35.33;;;8.50;;
249;SDS011;109;19.806;-70.704;2023-07-31T00:57:14;42.93;;;7.80;;
249;SDS011;109;19.806;-70.704;2023-07-31T00:59:40;44.83;;;7.70;;
249;SDS011;109;19.806;-70.704;2023-07-31T01:02:14;33.93;;;8.67;;
249;SDS011;109;19.806;-70.704;2023-07-31T01:04:42;37.60;;;9.07;;
249;SDS011;109;19.806;-70.704;2023-07-31T01:07:39;51.00;;;9.07;;
249;SDS011;109;19.806;-70.704;2023-07-31T01:10:26;30.90;;;7.10;;
249;SDS011;109;19.806;-70.704;2023-07-31T01:13:07;41.33;;;9.40;;
249;SDS011;109;19.806;-70.704;2023-07-31T01:15:36;38.43;;;7.90;;
249;SDS011;109;19.806;-70.704;2023-07-31T01:18:09;40.03;;;9.20;;
249;SDS011;109;19.806;-70.704;2023-07-31T01:20:35;30.73;;;8.13;;
249;SDS011;109;19.806;-70.704;2023-07-31T01:26:05;42.57;;;8.67;;
249;SDS011;109;19.806;-70.704;2023-07-31T01:29:10;35.10;;;9.90;;
249;SDS011;109;19.806;-70.704;2023-07-31T01:32:03;40.50;;;7.83;;
249;SDS011;109;19.806;-70.704;2023-07-31T01:34:32;44.23;;;9.20;;
249;SDS011;109;19.806;-70.704;2023-07-31T01:37:06;38.17;;;8.47;;
249;SDS011;109;19.806;-70.704;2023-07-31T01:39:32;38.13;;;7.63;;
249;SDS011;109;19.806;-70.704;2023-07-31T01:42:05;39.80;;;9.13;;
249;SDS011;109;19.806;-70.704;2023-07-31T01:44:33;40.90;;;7.40;;
249;SDS011;109;19.806;-70.704;2023-07-31T01:47:06;45.97;;;9.63;;
249;SDS011;109;19.806;-70.704;2023-07-31T01:49:32;36.20;;;7.80;;
249;SDS011;109;19.806;-70.704;2023-07-31T01:52:13;44.40;;;8.43;;
249;SDS011;109;19.806;-70.704;2023-07-31T01:54:53;47.67;;;9.13;;
249;SDS011;109;19.806;-70.704;2023-07-31T01:57:19;33.30;;;9.23;;
249;SDS011;109;19.806;-70.704;2023-07-31T01:59:52;28.83;;;7.87;;
249;SDS011;109;19.806;-70.704;2023-07-31T02:02:19;47.30;;;8.97;;
249;SDS011;109;19.806;-70.704;2023-07-31T02:04:53;38.27;;;8.30;;
249;SDS011;109;19.806;-70.704;2023-07-31T02:07:19;46.87;;;9.20;;
249;SDS011;109;19.806;-70.704;2023-07-31T02:09:53;43.93;;;8.27;;
249;SDS011;109;19.806;-70.704;2023-07-31T02:12:19;34.47;;;8.00;;
249;SDS011;109;19.806;-70.704;2023-07-31T02:14:53;39.20;;;8.60;;
249;SDS011;109;19.806;-70.704;2023-07-31T02:17:19;38.73;;;10.63;;
249;SDS011;109;19.806;-70.704;2023-07-31T02:19:53;41.77;;;8.37;;
249;SDS011;109;19.806;-70.704;2023-07-31T02:22:19;38.37;;;10.77;;
249;SDS011;109;19.806;-70.704;2023-07-31T02:24:53;40.47;;;9.70;;
249;SDS011;109;19.806;-70.704;2023-07-31T02:27:21;32.00;;;8.20;;
249;SDS011;109;19.806;-70.704;2023-07-31T02:29:56;43.47;;;8.20;;
249;SDS011;109;19.806;-70.704;2023-07-31T02:32:25;34.63;;;8.60;;
249;SDS011;109;19.806;-70.704;2023-07-31T02:34:58;41.50;;;8.23;;
249;SDS011;109;19.806;-70.704;2023-07-31T02:37:25;37.67;;;8.03;;
249;SDS011;109;19.806;-70.704;2023-07-31T02:39:58;31.07;;;8.20;;
249;SDS011;109;19.806;-70.704;2023-07-31T02:42:27;41.33;;;8.20;;
249;SDS011;109;19.806;-70.704;2023-07-31T02:45:00;35.17;;;7.40;;
249;SDS011;109;19.806;-70.704;2023-07-31T02:47:34;45.63;;;10.10;;
249;SDS011;109;19.806;-70.704;2023-07-31T02:50:08;26.90;;;7.80;;
249;SDS011;109;19.806;-70.704;2023-07-31T02:52:35;39.80;;;8.67;;
249;SDS011;109;19.806;-70.704;2023-07-31T02:55:08;41.90;;;8.10;;
249;SDS011;109;19.806;-70.704;2023-07-31T02:57:48;31.07;;;7.60;;
249;SDS011;109;19.806;-70.704;2023-07-31T03:00:14;32.70;;;8.50;;
249;SDS011;109;19.806;-70.704;2023-07-31T03:02:48;31.50;;;7.80;;
249;SDS011;109;19.806;-70.704;2023-07-31T03:05:14;39.30;;;7.70;;
249;SDS011;109;19.806;-70.704;2023-07-31T03:07:47;25.40;;;7.83;;
249;SDS011;109;19.806;-70.704;2023-07-31T03:10:14;37.53;;;6.80;;
249;SDS011;109;19.806;-70.704;2023-07-31T03:12:47;52.03;;;8.10;;
249;SDS011;109;19.806;-70.704;2023-07-31T03:15:13;33.10;;;8.00;;
249;SDS011;109;19.806;-70.704;2023-07-31T03:17:47;37.40;;;7.60;;
249;SDS011;109;19.806;-70.704;2023-07-31T03:20:13;33.70;;;7.50;;
249;SDS011;109;19.806;-70.704;2023-07-31T03:22:47;34.07;;;7.50;;
249;SDS011;109;19.806;-70.704;2023-07-31T03:25:13;31.87;;;8.40;;
249;SDS011;109;19.806;-70.704;2023-07-31T03:27:47;29.50;;;7.50;;
249;SDS011;109;19.806;-70.704;2023-07-31T03:30:13;33.87;;;7.53;;
249;SDS011;109;19.806;-70.704;2023-07-31T03:32:55;41.57;;;8.63;;
249;SDS011;109;19.806;-70.704;2023-07-31T03:35:28;31.80;;;7.60;;
249;SDS011;109;19.806;-70.704;2023-07-31T03:37:55;29.80;;;7.47;;
249;SDS011;109;19.806;-70.704;2023-07-31T03:40:29;31.53;;;7.77;;
249;SDS011;109;19.806;-70.704;2023-07-31T03:42:55;37.70;;;7.93;;
249;SDS011;109;19.806;-70.704;2023-07-31T03:45:29;37.47;;;9.63;;
249;SDS011;109;19.806;-70.704;2023-07-31T03:47:56;41.07;;;8.00;;
249;SDS011;109;19.806;-70.704;2023-07-31T03:50:29;31.00;;;7.47;;
249;SDS011;109;19.806;-70.704;2023-07-31T03:52:56;38.63;;;8.13;;
249;SDS011;109;19.806;-70.704;2023-07-31T03:55:31;40.03;;;8.40;;
249;SDS011;109;19.806;-70.704;2023-07-31T03:57:57;35.33;;;7.30;;
249;SDS011;109;19.806;-70.704;2023-07-31T04:00:32;27.00;;;7.07;;
249;SDS011;109;19.806;-70.704;2023-07-31T04:02:59;27.50;;;7.53;;
249;SDS011;109;19.806;-70.704;2023-07-31T04:05:40;32.97;;;8.20;;
249;SDS011;109;19.806;-70.704;2023-07-31T04:08:13;40.13;;;8.87;;
249;SDS011;109;19.806;-70.704;2023-07-31T04:10:39;25.50;;;7.80;;
249;SDS011;109;19.806;-70.704;2023-07-31T04:13:12;38.13;;;8.43;;
249;SDS011;109;19.806;-70.704;2023-07-31T04:15:38;41.00;;;7.23;;
249;SDS011;109;19.806;-70.704;2023-07-31T04:18:12;32.23;;;7.60;;
249;SDS011;109;19.806;-70.704;2023-07-31T04:20:38;25.63;;;7.30;;
249;SDS011;109;19.806;-70.704;2023-07-31T04:23:11;29.30;;;7.67;;
249;SDS011;109;19.806;-70.704;2023-07-31T04:25:37;29.00;;;8.03;;
249;SDS011;109;19.806;-70.704;2023-07-31T04:28:11;31.03;;;8.60;;
249;SDS011;109;19.806;-70.704;2023-07-31T04:30:37;39.40;;;9.57;;
249;SDS011;109;19.806;-70.704;2023-07-31T04:33:18;27.70;;;7.63;;
249;SDS011;109;19.806;-70.704;2023-07-31T04:35:52;33.77;;;8.00;;
249;SDS011;109;19.806;-70.704;2023-07-31T04:38:20;28.03;;;7.73;;
249;SDS011;109;19.806;-70.704;2023-07-31T04:40:53;32.30;;;7.57;;
249;SDS011;109;19.806;-70.704;2023-07-31T04:43:19;29.13;;;7.70;;
249;SDS011;109;19.806;-70.704;2023-07-31T04:45:52;38.10;;;9.03;;
249;SDS011;109;19.806;-70.704;2023-07-31T04:48:19;40.80;;;8.93;;
249;SDS011;109;19.806;-70.704;2023-07-31T04:50:52;37.57;;;7.90;;
249;SDS011;109;19.806;-70.704;2023-07-31T04:53:18;34.20;;;7.60;;
249;SDS011;109;19.806;-70.704;2023-07-31T04:55:51;30.20;;;7.30;;
249;SDS011;109;19.806;-70.704;2023-07-31T04:58:31;30.67;;;7.90;;
249;SDS011;109;19.806;-70.704;2023-07-31T05:00:57;41.77;;;8.90;;
249;SDS011;109;19.806;-70.704;2023-07-31T05:03:30;36.87;;;8.30;;
249;SDS011;109;19.806;-70.704;2023-07-31T05:06:03;28.13;;;6.93;;
249;SDS011;109;19.806;-70.704;2023-07-31T05:08:36;24.30;;;7.10;;
249;SDS011;109;19.806;-70.704;2023-07-31T05:11:02;32.63;;;8.33;;
249;SDS011;109;19.806;-70.704;2023-07-31T05:13:36;27.50;;;8.20;;
249;SDS011;109;19.806;-70.704;2023-07-31T05:16:02;32.63;;;7.17;;
249;SDS011;109;19.806;-70.704;2023-07-31T05:18:35;41.87;;;7.30;;
249;SDS011;109;19.806;-70.704;2023-07-31T05:21:01;31.70;;;7.03;;
249;SDS011;109;19.806;-70.704;2023-07-31T05:23:35;33.53;;;6.73;;
249;SDS011;109;19.806;-70.704;2023-07-31T05:26:05;30.23;;;7.43;;
249;SDS011;109;19.806;-70.704;2023-07-31T05:28:39;30.40;;;7.43;;
249;SDS011;109;19.806;-70.704;2023-07-31T05:31:05;29.50;;;7.50;;
249;SDS011;109;19.806;-70.704;2023-07-31T05:33:46;33.43;;;7.70;;
249;SDS011;109;19.806;-70.704;2023-07-31T05:36:19;27.87;;;7.40;;
249;SDS011;109;19.806;-70.704;2023-07-31T05:38:45;22.70;;;7.40;;
249;SDS011;109;19.806;-70.704;2023-07-31T05:41:18;34.37;;;7.33;;
249;SDS011;109;19.806;-70.704;2023-07-31T05:43:44;28.83;;;7.67;;
249;SDS011;109;19.806;-70.704;2023-07-31T05:46:18;29.93;;;7.83;;
249;SDS011;109;19.806;-70.704;2023-07-31T05:48:44;33.83;;;8.30;;
249;SDS011;109;19.806;-70.704;2023-07-31T05:51:17;31.93;;;7.03;;
249;SDS011;109;19.806;-70.704;2023-07-31T05:54:04;39.00;;;8.23;;
249;SDS011;109;19.806;-70.704;2023-07-31T05:56:37;27.73;;;6.90;;
249;SDS011;109;19.806;-70.704;2023-07-31T05:59:03;35.67;;;7.37;;
249;SDS011;109;19.806;-70.704;2023-07-31T06:01:37;31.80;;;7.20;;
249;SDS011;109;19.806;-70.704;2023-07-31T06:04:04;32.20;;;7.50;;
249;SDS011;109;19.806;-70.704;2023-07-31T06:06:37;27.13;;;6.70;;
249;SDS011;109;19.806;-70.704;2023-07-31T06:09:03;54.17;;;8.50;;
249;SDS011;109;19.806;-70.704;2023-07-31T06:11:36;33.20;;;7.80;;
249;SDS011;109;19.806;-70.704;2023-07-31T06:14:02;25.90;;;6.70;;
249;SDS011;109;19.806;-70.704;2023-07-31T06:16:35;32.50;;;7.87;;
249;SDS011;109;19.806;-70.704;2023-07-31T06:19:01;36.17;;;7.67;;
249;SDS011;109;19.806;-70.704;2023-07-31T06:21:34;36.40;;;7.30;;
249;SDS011;109;19.806;-70.704;2023-07-31T06:24:10;26.77;;;7.93;;
249;SDS011;109;19.806;-70.704;2023-07-31T06:26:44;29.80;;;7.47;;
249;SDS011;109;19.806;-70.704;2023-07-31T06:29:11;26.20;;;7.27;;
249;SDS011;109;19.806;-70.704;2023-07-31T06:31:44;39.40;;;7.70;;
249;SDS011;109;19.806;-70.704;2023-07-31T06:34:11;25.80;;;7.53;;
249;SDS011;109;19.806;-70.704;2023-07-31T06:36:44;31.27;;;7.37;;
249;SDS011;109;19.806;-70.704;2023-07-31T06:39:10;37.30;;;7.70;;
249;SDS011;109;19.806;-70.704;2023-07-31T06:41:43;40.77;;;8.00;;
249;SDS011;109;19.806;-70.704;2023-07-31T06:44:10;36.40;;;8.50;;
249;SDS011;109;19.806;-70.704;2023-07-31T06:46:43;37.07;;;7.67;;
249;SDS011;109;19.806;-70.704;2023-07-31T06:49:09;29.00;;;7.50;;
249;SDS011;109;19.806;-70.704;2023-07-31T06:51:43;22.97;;;6.90;;
249;SDS011;109;19.806;-70.704;2023-07-31T06:54:30;31.40;;;7.87;;
249;SDS011;109;19.806;-70.704;2023-07-31T06:57:03;34.43;;;7.23;;
249;SDS011;109;19.806;-70.704;2023-07-31T06:59:30;27.50;;;7.27;;
249;SDS011;109;19.806;-70.704;2023-07-31T07:02:03;43.73;;;8.97;;
249;SDS011;109;19.806;-70.704;2023-07-31T07:04:30;40.10;;;8.10;;
249;SDS011;109;19.806;-70.704;2023-07-31T07:07:03;34.63;;;8.30;;
249;SDS011;109;19.806;-70.704;2023-07-31T07:09:30;26.67;;;7.63;;
249;SDS011;109;19.806;-70.704;2023-07-31T07:12:02;34.57;;;8.83;;
249;SDS011;109;19.806;-70.704;2023-07-31T07:14:36;31.97;;;8.33;;
249;SDS011;109;19.806;-70.704;2023-07-31T07:17:09;31.27;;;7.60;;
249;SDS011;109;19.806;-70.704;2023-07-31T07:19:35;37.77;;;8.20;;
249;SDS011;109;19.806;-70.704;2023-07-31T07:22:09;30.17;;;7.40;;
249;SDS011;109;19.806;-70.704;2023-07-31T07:24:36;25.40;;;7.93;;
249;SDS011;109;19.806;-70.704;2023-07-31T07:27:09;28.50;;;7.50;;
249;SDS011;109;19.806;-70.704;2023-07-31T07:29:37;29.83;;;8.20;;
249;SDS011;109;19.806;-70.704;2023-07-31T07:32:11;35.53;;;8.80;;
249;SDS011;109;19.806;-70.704;2023-07-31T07:34:37;28.30;;;7.30;;
249;SDS011;109;19.806;-70.704;2023-07-31T07:37:11;24.00;;;6.40;;
249;SDS011;109;19.806;-70.704;2023-07-31T07:39:37;26.30;;;6.70;;
249;SDS011;109;19.806;-70.704;2023-07-31T07:42:10;19.10;;;6.23;;
249;SDS011;109;19.806;-70.704;2023-07-31T07:44:37;20.90;;;6.50;;
249;SDS011;109;19.806;-70.704;2023-07-31T07:47:10;30.90;;;7.33;;
249;SDS011;109;19.806;-70.704;2023-07-31T07:49:36;28.03;;;7.30;;
249;SDS011;109;19.806;-70.704;2023-07-31T07:52:09;28.20;;;7.03;;
249;SDS011;109;19.806;-70.704;2023-07-31T07:54:49;28.70;;;7.33;;
249;SDS011;109;19.806;-70.704;2023-07-31T07:57:15;30.47;;;7.10;;
249;SDS011;109;19.806;-70.704;2023-07-31T07:59:49;32.60;;;7.13;;
249;SDS011;109;19.806;-70.704;2023-07-31T08:02:15;29.37;;;7.57;;
249;SDS011;109;19.806;-70.704;2023-07-31T08:04:48;30.17;;;6.73;;
249;SDS011;109;19.806;-70.704;2023-07-31T08:07:14;23.60;;;6.50;;
249;SDS011;109;19.806;-70.704;2023-07-31T08:09:48;34.17;;;7.47;;
249;SDS011;109;19.806;-70.704;2023-07-31T08:12:22;20.93;;;6.87;;
249;SDS011;109;19.806;-70.704;2023-07-31T08:14:55;22.90;;;6.93;;
249;SDS011;109;19.806;-70.704;2023-07-31T08:17:22;32.33;;;7.03;;
249;SDS011;109;19.806;-70.704;2023-07-31T08:19:55;27.87;;;6.73;;
249;SDS011;109;19.806;-70.704;2023-07-31T08:22:23;20.33;;;6.60;;
249;SDS011;109;19.806;-70.704;2023-07-31T08:24:57;26.00;;;6.70;;
249;SDS011;109;19.806;-70.704;2023-07-31T08:27:23;32.97;;;6.67;;
249;SDS011;109;19.806;-70.704;2023-07-31T08:29:56;22.90;;;6.93;;
249;SDS011;109;19.806;-70.704;2023-07-31T08:32:22;28.20;;;6.30;;
249;SDS011;109;19.806;-70.704;2023-07-31T08:34:55;33.20;;;6.60;;
249;SDS011;109;19.806;-70.704;2023-07-31T08:37:21;29.80;;;6.70;;
249;SDS011;109;19.806;-70.704;2023-07-31T08:39:54;25.87;;;6.80;;
249;SDS011;109;19.806;-70.704;2023-07-31T08:42:20;19.17;;;6.43;;
249;SDS011;109;19.806;-70.704;2023-07-31T08:44:54;22.13;;;6.40;;
249;SDS011;109;19.806;-70.704;2023-07-31T08:47:22;20.40;;;5.50;;
249;SDS011;109;19.806;-70.704;2023-07-31T08:50:04;25.13;;;6.67;;
249;SDS011;109;19.806;-70.704;2023-07-31T08:52:52;34.13;;;6.40;;
249;SDS011;109;19.806;-70.704;2023-07-31T08:55:32;19.47;;;6.33;;
249;SDS011;109;19.806;-70.704;2023-07-31T08:57:59;28.83;;;7.10;;
249;SDS011;109;19.806;-70.704;2023-07-31T09:00:35;30.03;;;7.47;;
249;SDS011;109;19.806;-70.704;2023-07-31T09:03:03;31.77;;;6.50;;
249;SDS011;109;19.806;-70.704;2023-07-31T09:05:46;25.73;;;6.57;;
249;SDS011;109;19.806;-70.704;2023-07-31T09:08:21;26.70;;;6.00;;
249;SDS011;109;19.806;-70.704;2023-07-31T09:10:54;23.17;;;5.93;;
249;SDS011;109;19.806;-70.704;2023-07-31T09:13:32;27.03;;;5.97;;
249;SDS011;109;19.806;-70.704;2023-07-31T09:15:59;29.13;;;6.07;;
249;SDS011;109;19.806;-70.704;2023-07-31T09:18:37;21.83;;;6.23;;
249;SDS011;109;19.806;-70.704;2023-07-31T09:21:26;23.50;;;5.83;;
249;SDS011;109;19.806;-70.704;2023-07-31T09:23:53;22.50;;;5.00;;
249;SDS011;109;19.806;-70.704;2023-07-31T09:28:56;20.67;;;5.40;;
249;SDS011;109;19.806;-70.704;2023-07-31T09:31:40;20.93;;;6.50;;
249;SDS011;109;19.806;-70.704;2023-07-31T09:34:15;25.83;;;5.83;;
249;SDS011;109;19.806;-70.704;2023-07-31T09:36:45;20.20;;;6.40;;
249;SDS011;109;19.806;-70.704;2023-07-31T09:39:20;15.23;;;4.83;;
249;SDS011;109;19.806;-70.704;2023-07-31T09:41:48;20.47;;;5.63;;
249;SDS011;109;19.806;-70.704;2023-07-31T09:44:40;22.93;;;5.70;;
249;SDS011;109;19.806;-70.704;2023-07-31T09:47:23;13.53;;;5.20;;
249;SDS011;109;19.806;-70.704;2023-07-31T09:50:07;20.77;;;5.70;;
249;SDS011;109;19.806;-70.704;2023-07-31T09:52:41;23.33;;;5.30;;
249;SDS011;109;19.806;-70.704;2023-07-31T09:55:28;22.97;;;6.17;;
249;SDS011;109;19.806;-70.704;2023-07-31T09:58:04;24.60;;;6.17;;
249;SDS011;109;19.806;-70.704;2023-07-31T10:00:32;30.70;;;7.17;;
249;SDS011;109;19.806;-70.704;2023-07-31T10:03:06;22.70;;;5.80;;
249;SDS011;109;19.806;-70.704;2023-07-31T10:05:45;20.63;;;5.70;;
249;SDS011;109;19.806;-70.704;2023-07-31T10:08:30;27.83;;;6.10;;
249;SDS011;109;19.806;-70.704;2023-07-31T10:11:07;29.60;;;6.50;;
249;SDS011;109;19.806;-70.704;2023-07-31T10:13:35;23.37;;;6.63;;
249;SDS011;109;19.806;-70.704;2023-07-31T10:16:09;19.87;;;5.73;;
249;SDS011;109;19.806;-70.704;2023-07-31T10:18:37;19.97;;;5.90;;
249;SDS011;109;19.806;-70.704;2023-07-31T10:21:12;23.23;;;5.40;;
249;SDS011;109;19.806;-70.704;2023-07-31T10:23:40;17.70;;;6.80;;
249;SDS011;109;19.806;-70.704;2023-07-31T10:26:16;18.93;;;7.27;;
249;SDS011;109;19.806;-70.704;2023-07-31T10:28:45;25.07;;;7.63;;
249;SDS011;109;19.806;-70.704;2023-07-31T10:33:55;19.93;;;6.10;;
249;SDS011;109;19.806;-70.704;2023-07-31T10:36:44;16.90;;;5.73;;
249;SDS011;109;19.806;-70.704;2023-07-31T10:39:36;21.37;;;6.10;;
249;SDS011;109;19.806;-70.704;2023-07-31T10:42:14;26.50;;;6.00;;
249;SDS011;109;19.806;-70.704;2023-07-31T10:44:44;29.33;;;5.63;;
249;SDS011;109;19.806;-70.704;2023-07-31T10:47:19;27.73;;;6.50;;
249;SDS011;109;19.806;-70.704;2023-07-31T10:49:46;26.50;;;6.20;;
249;SDS011;109;19.806;-70.704;2023-07-31T10:52:12;26.90;;;5.77;;
249;SDS011;109;19.806;-70.704;2023-07-31T10:54:39;22.80;;;6.70;;
249;SDS011;109;19.806;-70.704;2023-07-31T10:57:19;25.43;;;6.67;;
249;SDS011;109;19.806;-70.704;2023-07-31T10:59:47;25.83;;;5.80;;
249;SDS011;109;19.806;-70.704;2023-07-31T11:02:25;30.37;;;7.20;;
249;SDS011;109;19.806;-70.704;2023-07-31T11:05:11;26.33;;;6.73;;
249;SDS011;109;19.806;-70.704;2023-07-31T11:07:49;28.53;;;7.23;;
249;SDS011;109;19.806;-70.704;2023-07-31T11:10:16;31.10;;;10.57;;
249;SDS011;109;19.806;-70.704;2023-07-31T11:12:45;40.67;;;12.80;;
249;SDS011;109;19.806;-70.704;2023-07-31T11:15:12;35.43;;;11.47;;
249;SDS011;109;19.806;-70.704;2023-07-31T11:17:39;18.50;;;6.67;;
249;SDS011;109;19.806;-70.704;2023-07-31T11:20:06;30.53;;;6.97;;
249;SDS011;109;19.806;-70.704;2023-07-31T11:22:36;20.93;;;5.57;;
249;SDS011;109;19.806;-70.704;2023-07-31T11:25:03;31.27;;;6.57;;
249;SDS011;109;19.806;-70.704;2023-07-31T11:27:30;24.40;;;6.10;;
249;SDS011;109;19.806;-70.704;2023-07-31T11:30:00;21.53;;;6.27;;
249;SDS011;109;19.806;-70.704;2023-07-31T11:32:27;24.93;;;5.87;;
249;SDS011;109;19.806;-70.704;2023-07-31T11:34:54;19.57;;;6.00;;
249;SDS011;109;19.806;-70.704;2023-07-31T11:37:22;18.37;;;6.00;;
249;SDS011;109;19.806;-70.704;2023-07-31T11:39:59;19.70;;;5.47;;
249;SDS011;109;19.806;-70.704;2023-07-31T11:42:26;18.03;;;5.53;;
249;SDS011;109;19.806;-70.704;2023-07-31T11:44:53;22.43;;;5.73;;
249;SDS011;109;19.806;-70.704;2023-07-31T11:47:20;24.27;;;6.50;;
249;SDS011;109;19.806;-70.704;2023-07-31T11:49:47;24.50;;;5.87;;
249;SDS011;109;19.806;-70.704;2023-07-31T11:52:15;15.00;;;6.13;;
249;SDS011;109;19.806;-70.704;2023-07-31T11:54:45;24.10;;;6.20;;
249;SDS011;109;19.806;-70.704;2023-07-31T11:57:12;23.83;;;6.00;;
249;SDS011;109;19.806;-70.704;2023-07-31T11:59:39;25.03;;;5.70;;
249;SDS011;109;19.806;-70.704;2023-07-31T12:02:06;24.53;;;6.70;;
249;SDS011;109;19.806;-70.704;2023-07-31T12:04:32;34.00;;;7.20;;
249;SDS011;109;19.806;-70.704;2023-07-31T12:07:00;33.17;;;6.80;;
249;SDS011;109;19.806;-70.704;2023-07-31T12:09:26;23.53;;;6.40;;
249;SDS011;109;19.806;-70.704;2023-07-31T12:11:53;22.13;;;6.50;;
249;SDS011;109;19.806;-70.704;2023-07-31T12:14:29;22.47;;;6.60;;
249;SDS011;109;19.806;-70.704;2023-07-31T12:16:56;19.07;;;5.77;;
249;SDS011;109;19.806;-70.704;2023-07-31T12:19:27;23.17;;;6.30;;
249;SDS011;109;19.806;-70.704;2023-07-31T12:21:58;24.17;;;6.10;;
249;SDS011;109;19.806;-70.704;2023-07-31T12:24:26;33.23;;;7.47;;
249;SDS011;109;19.806;-70.704;2023-07-31T12:26:53;25.20;;;6.40;;
249;SDS011;109;19.806;-70.704;2023-07-31T12:29:20;26.20;;;6.20;;
249;SDS011;109;19.806;-70.704;2023-07-31T12:31:47;21.00;;;5.80;;
249;SDS011;109;19.806;-70.704;2023-07-31T12:34:17;14.40;;;6.10;;
249;SDS011;109;19.806;-70.704;2023-07-31T12:36:49;25.67;;;5.70;;
249;SDS011;109;19.806;-70.704;2023-07-31T12:39:16;15.80;;;6.13;;
249;SDS011;109;19.806;-70.704;2023-07-31T12:41:43;21.33;;;5.90;;
249;SDS011;109;19.806;-70.704;2023-07-31T12:44:09;18.37;;;5.30;;
249;SDS011;109;19.806;-70.704;2023-07-31T12:46:36;20.30;;;5.60;;
249;SDS011;109;19.806;-70.704;2023-07-31T12:49:02;17.70;;;5.73;;
249;SDS011;109;19.806;-70.704;2023-07-31T12:51:29;17.20;;;5.80;;
249;SDS011;109;19.806;-70.704;2023-07-31T12:53:56;23.50;;;5.90;;
249;SDS011;109;19.806;-70.704;2023-07-31T12:56:23;17.97;;;6.70;;
249;SDS011;109;19.806;-70.704;2023-07-31T12:58:50;24.63;;;5.90;;
249;SDS011;109;19.806;-70.704;2023-07-31T13:01:16;24.00;;;5.70;;
249;SDS011;109;19.806;-70.704;2023-07-31T13:03:43;20.20;;;5.77;;
249;SDS011;109;19.806;-70.704;2023-07-31T13:06:10;23.77;;;6.50;;
249;SDS011;109;19.806;-70.704;2023-07-31T13:08:36;14.77;;;6.37;;
249;SDS011;109;19.806;-70.704;2023-07-31T13:11:03;30.60;;;6.10;;
249;SDS011;109;19.806;-70.704;2023-07-31T13:13:30;22.03;;;5.97;;
249;SDS011;109;19.806;-70.704;2023-07-31T13:15:57;14.30;;;5.17;;
249;SDS011;109;19.806;-70.704;2023-07-31T13:18:23;12.10;;;5.30;;
249;SDS011;109;19.806;-70.704;2023-07-31T13:20:50;22.90;;;7.20;;
249;SDS011;109;19.806;-70.704;2023-07-31T13:23:16;21.90;;;5.93;;
249;SDS011;109;19.806;-70.704;2023-07-31T13:25:43;17.27;;;5.67;;
249;SDS011;109;19.806;-70.704;2023-07-31T13:28:09;27.43;;;5.90;;
249;SDS011;109;19.806;-70.704;2023-07-31T13:30:35;30.43;;;6.73;;
249;SDS011;109;19.806;-70.704;2023-07-31T13:33:02;19.90;;;5.10;;
249;SDS011;109;19.806;-70.704;2023-07-31T13:35:29;17.67;;;4.70;;
249;SDS011;109;19.806;-70.704;2023-07-31T13:37:57;14.50;;;5.27;;
249;SDS011;109;19.806;-70.704;2023-07-31T13:40:23;18.23;;;5.97;;
249;SDS011;109;19.806;-70.704;2023-07-31T13:42:50;14.70;;;4.70;;
249;SDS011;109;19.806;-70.704;2023-07-31T13:45:16;21.27;;;5.20;;
249;SDS011;109;19.806;-70.704;2023-07-31T13:47:43;15.13;;;5.27;;
249;SDS011;109;19.806;-70.704;2023-07-31T13:50:09;22.47;;;5.30;;
249;SDS011;109;19.806;-70.704;2023-07-31T13:52:36;28.90;;;6.10;;
249;SDS011;109;19.806;-70.704;2023-07-31T13:55:02;23.93;;;7.07;;
249;SDS011;109;19.806;-70.704;2023-07-31T13:57:29;22.20;;;6.03;;
249;SDS011;109;19.806;-70.704;2023-07-31T13:59:55;19.17;;;5.93;;
249;SDS011;109;19.806;-70.704;2023-07-31T14:02:22;18.70;;;5.10;;
249;SDS011;109;19.806;-70.704;2023-07-31T14:04:48;21.03;;;6.07;;
249;SDS011;109;19.806;-70.704;2023-07-31T14:07:15;33.90;;;6.43;;
249;SDS011;109;19.806;-70.704;2023-07-31T14:09:43;17.73;;;6.20;;
249;SDS011;109;19.806;-70.704;2023-07-31T14:12:09;36.97;;;6.03;;
249;SDS011;109;19.806;-70.704;2023-07-31T14:14:36;21.83;;;5.90;;
249;SDS011;109;19.806;-70.704;2023-07-31T14:17:02;26.17;;;8.37;;
249;SDS011;109;19.806;-70.704;2023-07-31T14:19:29;15.33;;;5.77;;
249;SDS011;109;19.806;-70.704;2023-07-31T14:22:00;25.67;;;5.20;;
249;SDS011;109;19.806;-70.704;2023-07-31T14:24:26;32.27;;;6.17;;
249;SDS011;109;19.806;-70.704;2023-07-31T14:26:53;22.53;;;5.67;;
249;SDS011;109;19.806;-70.704;2023-07-31T14:29:19;16.40;;;6.40;;
249;SDS011;109;19.806;-70.704;2023-07-31T14:31:46;20.30;;;5.70;;
249;SDS011;109;19.806;-70.704;2023-07-31T14:34:12;22.60;;;5.97;;
249;SDS011;109;19.806;-70.704;2023-07-31T14:36:39;23.83;;;6.00;;
249;SDS011;109;19.806;-70.704;2023-07-31T14:39:05;33.33;;;6.50;;
249;SDS011;109;19.806;-70.704;2023-07-31T14:41:32;21.60;;;5.90;;
249;SDS011;109;19.806;-70.704;2023-07-31T14:43:58;33.93;;;6.30;;
249;SDS011;109;19.806;-70.704;2023-07-31T14:46:25;16.70;;;5.87;;
249;SDS011;109;19.806;-70.704;2023-07-31T14:48:51;19.90;;;5.13;;
249;SDS011;109;19.806;-70.704;2023-07-31T14:51:18;18.30;;;6.03;;
249;SDS011;109;19.806;-70.704;2023-07-31T14:53:44;16.97;;;5.73;;
249;SDS011;109;19.806;-70.704;2023-07-31T14:56:12;16.80;;;5.97;;
249;SDS011;109;19.806;-70.704;2023-07-31T14:58:39;32.90;;;5.63;;
249;SDS011;109;19.806;-70.704;2023-07-31T15:01:05;20.57;;;5.57;;
249;SDS011;109;19.806;-70.704;2023-07-31T15:03:32;18.57;;;5.30;;
249;SDS011;109;19.806;-70.704;2023-07-31T15:05:58;19.60;;;5.70;;
249;SDS011;109;19.806;-70.704;2023-07-31T15:08:25;22.03;;;5.17;;
249;SDS011;109;19.806;-70.704;2023-07-31T15:10:51;20.40;;;5.87;;
249;SDS011;109;19.806;-70.704;2023-07-31T15:13:23;23.93;;;6.50;;
249;SDS011;109;19.806;-70.704;2023-07-31T15:15:50;16.13;;;5.60;;
249;SDS011;109;19.806;-70.704;2023-07-31T15:18:16;21.80;;;4.70;;
249;SDS011;109;19.806;-70.704;2023-07-31T15:20:43;20.83;;;5.40;;
249;SDS011;109;19.806;-70.704;2023-07-31T15:23:09;19.63;;;5.20;;
249;SDS011;109;19.806;-70.704;2023-07-31T15:25:36;29.60;;;6.00;;
249;SDS011;109;19.806;-70.704;2023-07-31T15:28:02;23.90;;;5.90;;